createdAt,value
2023-01-01T00:00:18.387Z,97300.00
2023-01-01T00:02:45.560Z,97297.00
2023-01-01T00:05:12.693Z,97302.00
2023-01-01T00:07:39.870Z,97300.00
2023-01-01T00:10:26.093Z,97294.00
2023-01-01T00:12:53.313Z,97300.00
2023-01-01T00:15:20.637Z,97288.00
2023-01-01T00:17:47.828Z,97288.00
2023-01-01T00:20:14.981Z,97294.00
2023-01-01T00:22:57.549Z,97289.00
2023-01-01T00:25:25.154Z,97280.00
2023-01-01T00:27:52.518Z,97291.00
2023-01-01T00:30:19.764Z,97278.00
2023-01-01T00:32:55.120Z,97293.00
2023-01-01T00:35:24.278Z,97272.00
2023-01-01T00:37:51.466Z,97284.00
2023-01-01T00:40:18.791Z,97285.00
2023-01-01T00:42:46.009Z,97277.00
2023-01-01T00:45:18.831Z,97286.00
2023-01-01T00:47:48.755Z,97293.00
2023-01-01T00:50:15.937Z,97285.00
2023-01-01T00:52:43.176Z,97280.00
2023-01-01T00:55:11.429Z,97291.00
2023-01-01T00:57:38.610Z,97296.00
2023-01-01T01:00:07.383Z,97302.00
2023-01-01T01:02:35.011Z,97291.00
2023-01-01T01:05:03.601Z,97297.00
2023-01-01T01:07:37.417Z,97270.00
2023-01-01T01:10:05.175Z,97299.00
2023-01-01T01:12:34.459Z,97295.00
2023-01-01T01:15:01.885Z,97294.00
2023-01-01T01:17:29.569Z,97301.00
2023-01-01T01:19:56.728Z,97304.00
2023-01-01T01:22:28.344Z,97300.00
2023-01-01T01:24:56.676Z,97309.00
2023-01-01T01:27:24.109Z,97326.00
2023-01-01T01:29:51.320Z,97328.00
2023-01-01T01:32:18.472Z,97318.00
2023-01-01T01:34:45.683Z,97336.00
2023-01-01T01:37:13.140Z,97339.00
2023-01-01T01:39:40.409Z,97329.00
2023-01-01T01:42:07.776Z,97335.00
2023-01-01T01:44:47.054Z,97337.00
2023-01-01T01:47:43.404Z,97343.00
2023-01-01T01:50:32.903Z,97358.00
2023-01-01T01:53:09.542Z,97359.00
2023-01-01T01:55:45.635Z,97362.00
2023-01-01T01:58:14.452Z,97354.00
2023-01-01T02:00:41.983Z,97352.00
2023-01-01T02:03:30.977Z,97352.00
2023-01-01T02:05:59.154Z,97343.00
2023-01-01T02:08:26.538Z,97348.00
2023-01-01T02:10:53.756Z,97341.00
2023-01-01T02:13:21.149Z,97344.00
2023-01-01T02:15:55.338Z,97349.00
2023-01-01T02:18:26.373Z,97350.00
2023-01-01T02:21:13.357Z,97359.00
2023-01-01T02:23:52.539Z,97357.00
2023-01-01T02:26:44.106Z,97342.00
2023-01-01T02:29:26.231Z,97345.00
2023-01-01T02:32:12.444Z,97348.00
2023-01-01T02:34:43.370Z,97346.00
2023-01-01T02:37:13.577Z,97352.00
2023-01-01T02:39:45.925Z,97348.00
2023-01-01T02:42:13.441Z,97345.00
2023-01-01T02:44:42.811Z,97348.00
2023-01-01T02:47:13.359Z,97347.00
2023-01-01T02:49:54.934Z,97355.00
2023-01-01T02:52:39.870Z,97354.00
2023-01-01T02:55:27.099Z,97337.00
2023-01-01T02:58:38.170Z,97329.00
2023-01-01T03:01:35.217Z,97333.00
2023-01-01T03:04:20.324Z,97341.00
2023-01-01T03:06:59.237Z,97326.00
2023-01-01T03:09:48.786Z,97327.00
2023-01-01T03:12:39.536Z,97333.00
2023-01-01T03:15:35.515Z,97335.00
2023-01-01T03:18:09.227Z,97334.00
2023-01-01T03:20:40.300Z,97336.00
2023-01-01T03:23:19.364Z,97329.00
2023-01-01T03:25:50.066Z,97326.00
2023-01-01T03:28:20.639Z,97333.00
2023-01-01T03:30:48.602Z,97339.00
2023-01-01T03:33:27.945Z,97335.00
2023-01-01T03:36:21.703Z,97328.00
2023-01-01T03:38:52.787Z,97324.00
2023-01-01T03:41:44.272Z,97319.00
2023-01-01T03:44:23.632Z,97321.00
2023-01-01T03:46:51.193Z,97327.00
2023-01-01T03:49:18.737Z,97339.00
2023-01-01T03:52:18.794Z,97347.00
2023-01-01T03:55:03.554Z,97347.00
2023-01-01T03:58:01.830Z,97350.00
2023-01-01T04:00:33.664Z,97354.00
2023-01-01T04:03:14.470Z,97354.00
2023-01-01T04:05:42.577Z,97358.00
2023-01-01T04:08:10.661Z,97359.00
2023-01-01T04:10:42.438Z,97357.00
2023-01-01T04:13:09.716Z,97364.00
2023-01-01T04:15:37.270Z,97360.00
2023-01-01T04:18:04.566Z,97368.00
2023-01-01T04:20:31.914Z,97358.00
2023-01-01T04:23:00.287Z,97352.00
2023-01-01T04:25:28.407Z,97347.00
2023-01-01T04:27:55.713Z,97350.00
2023-01-01T04:30:22.943Z,97347.00
2023-01-01T04:32:50.125Z,97344.00
2023-01-01T04:35:17.577Z,97337.00
2023-01-01T04:37:46.050Z,97326.00
2023-01-01T04:40:14.109Z,97334.00
2023-01-01T04:42:41.521Z,97329.00
2023-01-01T04:45:09.262Z,97337.00
2023-01-01T04:47:36.412Z,97334.00
2023-01-01T04:50:03.711Z,97335.00
2023-01-01T04:52:30.852Z,97343.00
2023-01-01T04:54:57.980Z,97347.00
2023-01-01T04:57:25.123Z,97332.00
2023-01-01T04:59:52.255Z,97343.00
2023-01-01T05:02:19.652Z,97341.00
2023-01-01T05:04:46.970Z,97350.00
2023-01-01T05:07:14.098Z,97352.00
2023-01-01T05:09:41.236Z,97349.00
2023-01-01T05:12:08.381Z,97353.00
2023-01-01T05:14:35.578Z,97353.00
2023-01-01T05:17:02.735Z,97362.00
2023-01-01T05:19:30.087Z,97352.00
2023-01-01T05:21:57.258Z,97362.00
2023-01-01T05:24:24.371Z,97366.00
2023-01-01T05:26:51.524Z,97365.00
2023-01-01T05:29:19.622Z,97357.00
2023-01-01T05:31:46.999Z,97362.00
2023-01-01T05:34:14.321Z,97360.00
2023-01-01T05:36:41.539Z,97366.00
2023-01-01T05:39:10.465Z,97364.00
2023-01-01T05:41:37.684Z,97381.00
2023-01-01T05:44:06.096Z,97368.00
2023-01-01T05:46:33.429Z,97372.00
2023-01-01T05:49:00.830Z,97381.00
2023-01-01T05:51:29.364Z,97382.00
2023-01-01T05:53:57.333Z,97385.00
2023-01-01T05:56:24.957Z,97387.00
2023-01-01T05:58:52.124Z,97386.00
2023-01-01T06:01:28.226Z,97381.00
2023-01-01T06:03:56.592Z,97390.00
2023-01-01T06:06:26.294Z,97386.00
2023-01-01T06:08:55.879Z,97385.00
2023-01-01T06:11:23.152Z,97385.00
2023-01-01T06:13:53.879Z,97392.00
2023-01-01T06:16:21.562Z,97389.00
2023-01-01T06:18:48.797Z,97394.00
2023-01-01T06:21:19.149Z,97387.00
2023-01-01T06:23:46.321Z,97384.00
2023-01-01T06:26:15.723Z,97393.00
2023-01-01T06:28:43.770Z,97387.00
2023-01-01T06:31:12.508Z,97389.00
2023-01-01T06:33:40.361Z,97384.00
2023-01-01T06:36:10.097Z,97389.00
2023-01-01T06:38:40.525Z,97386.00
2023-01-01T06:41:13.202Z,97385.00
2023-01-01T06:43:40.596Z,97395.00
2023-01-01T06:46:18.161Z,97394.00
2023-01-01T06:48:46.764Z,97383.00
2023-01-01T06:51:19.401Z,97383.00
2023-01-01T06:53:47.797Z,97394.00
2023-01-01T06:56:15.602Z,97383.00
2023-01-01T06:58:42.750Z,97391.00
2023-01-01T07:01:15.154Z,97384.00
2023-01-01T07:03:42.973Z,97383.00
2023-01-01T07:06:10.781Z,97400.00
2023-01-01T07:08:38.353Z,97389.00
2023-01-01T07:11:05.648Z,97397.00
2023-01-01T07:13:33.066Z,97404.00
2023-01-01T07:16:00.491Z,97406.00
2023-01-01T07:18:28.023Z,97403.00
2023-01-01T07:21:03.249Z,97407.00
2023-01-01T07:23:33.348Z,97404.00
2023-01-01T07:26:00.715Z,97413.00
2023-01-01T07:28:28.161Z,97413.00
2023-01-01T07:30:55.443Z,97397.00
2023-01-01T07:33:24.090Z,97401.00
2023-01-01T07:35:51.591Z,97406.00
2023-01-01T07:38:18.803Z,97408.00
2023-01-01T07:40:46.001Z,97417.00
2023-01-01T07:43:14.071Z,97420.00
2023-01-01T07:45:41.408Z,97422.00
2023-01-01T07:48:13.347Z,97430.00
2023-01-01T07:50:40.708Z,97429.00
2023-01-01T07:53:07.947Z,97435.00
2023-01-01T07:55:35.132Z,97442.00
2023-01-01T07:58:02.548Z,97442.00
2023-01-01T08:00:30.074Z,97446.00
2023-01-01T08:02:57.427Z,97441.00
2023-01-01T08:05:27.161Z,97437.00
2023-01-01T08:07:54.594Z,97436.00
2023-01-01T08:10:21.903Z,97454.00
2023-01-01T08:12:49.174Z,97442.00
2023-01-01T08:15:16.796Z,97435.00
2023-01-01T08:17:46.820Z,97449.00
2023-01-01T08:20:14.632Z,97451.00
2023-01-01T08:22:41.851Z,97451.00
2023-01-01T08:25:09.377Z,97457.00
2023-01-01T08:27:36.531Z,97465.00
2023-01-01T08:30:04.016Z,97458.00
2023-01-01T08:32:31.156Z,97473.00
2023-01-01T08:34:58.296Z,97473.00
2023-01-01T08:37:25.474Z,97474.00
2023-01-01T08:39:53.082Z,97468.00
2023-01-01T08:42:20.277Z,97465.00
2023-01-01T08:44:47.605Z,97460.00
2023-01-01T08:47:19.758Z,97469.00
2023-01-01T08:49:47.103Z,97470.00
2023-01-01T08:52:14.557Z,97464.00
2023-01-01T08:54:41.838Z,97465.00
2023-01-01T08:57:09.377Z,97460.00
2023-01-01T08:59:36.529Z,97461.00
2023-01-01T09:02:04.685Z,97475.00
2023-01-01T09:04:31.966Z,97474.00
2023-01-01T09:06:59.130Z,97474.00
2023-01-01T09:09:31.418Z,97480.00
2023-01-01T09:12:03.884Z,97481.00
2023-01-01T09:14:31.624Z,97484.00
2023-01-01T09:16:59.190Z,97480.00
2023-01-01T09:19:27.581Z,97486.00
2023-01-01T09:21:55.147Z,97480.00
2023-01-01T09:24:22.763Z,97479.00
2023-01-01T09:26:50.104Z,97473.00
2023-01-01T09:29:20.745Z,97469.00
2023-01-01T09:31:49.188Z,97473.00
2023-01-01T09:34:17.936Z,97489.00
2023-01-01T09:36:45.862Z,97481.00
2023-01-01T09:39:15.351Z,97481.00
2023-01-01T09:42:04.659Z,97480.00
2023-01-01T09:45:02.972Z,97486.00
2023-01-01T09:47:43.039Z,97488.00
2023-01-01T09:50:29.820Z,97488.00
2023-01-01T09:52:59.046Z,97474.00
2023-01-01T09:55:34.992Z,97466.00
2023-01-01T09:58:02.126Z,97483.00
2023-01-01T10:00:30.257Z,97475.00
2023-01-01T10:03:19.361Z,97479.00
2023-01-01T10:06:28.051Z,97476.00
2023-01-01T10:09:16.671Z,97470.00
2023-01-01T10:11:53.263Z,97487.00
2023-01-01T10:14:42.319Z,97476.00
2023-01-01T10:17:41.823Z,97466.00
2023-01-01T10:20:24.227Z,97479.00
2023-01-01T10:22:59.541Z,97463.00
2023-01-01T10:25:29.007Z,97466.00
2023-01-01T10:28:25.837Z,97458.00
2023-01-01T10:30:55.065Z,97453.00
2023-01-01T10:33:22.229Z,97448.00
2023-01-01T10:35:56.744Z,97449.00
2023-01-01T10:38:25.899Z,97447.00
2023-01-01T10:40:56.339Z,97454.00
2023-01-01T10:43:23.510Z,97449.00
2023-01-01T10:45:57.282Z,97457.00
2023-01-01T10:48:26.109Z,97457.00
2023-01-01T10:50:59.480Z,97452.00
2023-01-01T10:53:26.588Z,97449.00
2023-01-01T10:56:13.509Z,97426.00
2023-01-01T10:58:46.369Z,97422.00
2023-01-01T11:01:23.962Z,97424.00
2023-01-01T11:04:00.034Z,97425.00
2023-01-01T11:06:33.330Z,97426.00
2023-01-01T11:09:26.506Z,97420.00
2023-01-01T11:12:09.508Z,97413.00
2023-01-01T11:14:42.771Z,97413.00
2023-01-01T11:17:10.515Z,97410.00
2023-01-01T11:19:42.062Z,97398.00
2023-01-01T11:22:40.726Z,97408.00
2023-01-01T11:25:22.906Z,97387.00
2023-01-01T11:27:51.078Z,97391.00
2023-01-01T11:30:22.769Z,97387.00
2023-01-01T11:33:00.844Z,97374.00
2023-01-01T11:35:33.703Z,97368.00
2023-01-01T11:38:00.876Z,97373.00
2023-01-01T11:40:37.641Z,97362.00
2023-01-01T11:43:05.966Z,97362.00
2023-01-01T11:45:40.732Z,97353.00
2023-01-01T11:48:43.264Z,97351.00
2023-01-01T11:51:14.538Z,97352.00
2023-01-01T11:53:42.615Z,97345.00
2023-01-01T11:56:14.609Z,97333.00
2023-01-01T11:58:52.191Z,97325.00
2023-01-01T12:01:41.225Z,97334.00
2023-01-01T12:04:30.040Z,97339.00
2023-01-01T12:07:06.962Z,97331.00
2023-01-01T12:09:58.872Z,97328.00
2023-01-01T12:12:31.884Z,97331.00
2023-01-01T12:15:05.741Z,97326.00
2023-01-01T12:17:39.976Z,97328.00
2023-01-01T12:20:40.609Z,97322.00
2023-01-01T12:23:09.888Z,97314.00
2023-01-01T12:25:40.656Z,97311.00
2023-01-01T12:28:19.706Z,97306.00
2023-01-01T12:31:20.819Z,97306.00
2023-01-01T12:34:17.855Z,97312.00
2023-01-01T12:37:11.745Z,97297.00
2023-01-01T12:40:00.910Z,97290.00
2023-01-01T12:42:31.152Z,97287.00
2023-01-01T12:45:31.348Z,97281.00
2023-01-01T12:48:29.251Z,97284.00
2023-01-01T12:51:14.886Z,97286.00
2023-01-01T12:54:04.379Z,97285.00
2023-01-01T12:56:35.714Z,97279.00
2023-01-01T12:59:06.570Z,97274.00
2023-01-01T13:01:35.829Z,97276.00
2023-01-01T13:04:12.491Z,97278.00
2023-01-01T13:06:40.833Z,97269.00
2023-01-01T13:09:18.657Z,97270.00
2023-01-01T13:12:10.507Z,97268.00
2023-01-01T13:14:42.137Z,97266.00
2023-01-01T13:17:26.548Z,97259.00
2023-01-01T13:20:01.989Z,97258.00
2023-01-01T13:22:38.982Z,97254.00
2023-01-01T13:25:08.918Z,97252.00
2023-01-01T13:27:58.032Z,97260.00
2023-01-01T13:30:37.530Z,97249.00
2023-01-01T13:33:28.680Z,97254.00
2023-01-01T13:36:19.939Z,97249.00
2023-01-01T13:38:55.198Z,97256.00
2023-01-01T13:41:28.521Z,97253.00
2023-01-01T13:44:03.091Z,97253.00
2023-01-01T13:46:39.202Z,97252.00
2023-01-01T13:49:31.191Z,97245.00
2023-01-01T13:52:33.764Z,97242.00
2023-01-01T13:55:16.578Z,97241.00
2023-01-01T13:58:20.786Z,97248.00
2023-01-01T14:01:08.692Z,97247.00
2023-01-01T14:03:51.334Z,97248.00
2023-01-01T14:06:32.538Z,97238.00
2023-01-01T14:09:10.018Z,97243.00
2023-01-01T14:11:37.226Z,97248.00
2023-01-01T14:14:17.508Z,97243.00
2023-01-01T14:16:44.811Z,97247.00
2023-01-01T14:19:14.631Z,97242.00
2023-01-01T14:21:44.031Z,97248.00
2023-01-01T14:24:13.438Z,97240.00
2023-01-01T14:26:41.744Z,97246.00
2023-01-01T14:29:10.386Z,97238.00
2023-01-01T14:31:44.597Z,97237.00
2023-01-01T14:34:26.581Z,97237.00
2023-01-01T14:37:04.227Z,97234.00
2023-01-01T14:39:33.450Z,97228.00
2023-01-01T14:42:13.792Z,97233.00
2023-01-01T14:44:43.915Z,97238.00
2023-01-01T14:47:22.960Z,97243.00
2023-01-01T14:49:51.528Z,97248.00
2023-01-01T14:52:27.515Z,97243.00
2023-01-01T14:54:55.833Z,97247.00
2023-01-01T14:57:33.535Z,97242.00
2023-01-01T15:00:01.108Z,97245.00
2023-01-01T15:02:30.553Z,97242.00
2023-01-01T15:04:58.989Z,97255.00
2023-01-01T15:07:30.298Z,97257.00
2023-01-01T15:10:05.251Z,97254.00
2023-01-01T15:12:34.751Z,97259.00
2023-01-01T15:15:02.033Z,97260.00
2023-01-01T15:17:29.280Z,97258.00
2023-01-01T15:20:06.636Z,97265.00
2023-01-01T15:22:38.847Z,97260.00
2023-01-01T15:25:10.547Z,97256.00
2023-01-01T15:27:37.821Z,97254.00
2023-01-01T15:30:13.228Z,97261.00
2023-01-01T15:32:41.159Z,97253.00
2023-01-01T15:35:24.878Z,97259.00
2023-01-01T15:37:59.972Z,97248.00
2023-01-01T15:40:27.051Z,97239.00
2023-01-01T15:42:57.139Z,97240.00
2023-01-01T15:45:27.285Z,97236.00
2023-01-01T15:47:56.339Z,97240.00
2023-01-01T15:50:24.929Z,97241.00
2023-01-01T15:53:02.951Z,97228.00
2023-01-01T15:55:33.280Z,97239.00
2023-01-01T15:58:00.668Z,97236.00
2023-01-01T16:00:36.927Z,97237.00
2023-01-01T16:03:21.240Z,97233.00
2023-01-01T16:05:51.268Z,97236.00
2023-01-01T16:08:19.985Z,97238.00
2023-01-01T16:10:48.570Z,97245.00
2023-01-01T16:13:15.859Z,97244.00
2023-01-01T16:16:19.811Z,97243.00
2023-01-01T16:18:47.005Z,97230.00
2023-01-01T16:21:14.160Z,97231.00
2023-01-01T16:23:41.292Z,97230.00
2023-01-01T16:26:08.491Z,97252.00
2023-01-01T16:28:35.688Z,97246.00
2023-01-01T16:31:02.956Z,97247.00
2023-01-01T16:33:30.132Z,97256.00
2023-01-01T16:35:57.306Z,97248.00
2023-01-01T16:38:24.552Z,97248.00
2023-01-01T16:40:52.657Z,97245.00
2023-01-01T16:43:19.866Z,97256.00
2023-01-01T16:45:47.102Z,97246.00
2023-01-01T16:48:14.288Z,97256.00
2023-01-01T16:50:41.474Z,97259.00
2023-01-01T16:53:08.606Z,97246.00
2023-01-01T16:55:35.742Z,97238.00
2023-01-01T16:58:38.071Z,97239.00
2023-01-01T17:00:50.077Z,97236.00
2023-01-01T17:03:17.354Z,97233.00
2023-01-01T17:05:44.910Z,97233.00
2023-01-01T17:08:12.251Z,97235.00
2023-01-01T17:10:39.489Z,97236.00
2023-01-01T17:13:07.581Z,97226.00
2023-01-01T17:15:34.847Z,97231.00
2023-01-01T17:18:02.021Z,97229.00
2023-01-01T17:20:29.244Z,97225.00
2023-01-01T17:22:56.407Z,97232.00
2023-01-01T17:25:23.632Z,97230.00
2023-01-01T17:27:50.763Z,97226.00
2023-01-01T17:30:17.990Z,97228.00
2023-01-01T17:32:45.173Z,97228.00
2023-01-01T17:35:12.300Z,97235.00
2023-01-01T17:37:39.487Z,97236.00
2023-01-01T17:40:07.337Z,97231.00
2023-01-01T17:42:35.344Z,97230.00
2023-01-01T17:45:02.526Z,97232.00
2023-01-01T17:47:32.956Z,97239.00
2023-01-01T17:50:00.774Z,97233.00
2023-01-01T17:52:28.677Z,97232.00
2023-01-01T17:54:55.840Z,97225.00
2023-01-01T17:57:23.024Z,97231.00
2023-01-01T17:59:50.184Z,97235.00
2023-01-01T18:02:17.505Z,97225.00
2023-01-01T18:04:45.111Z,97226.00
2023-01-01T18:07:12.288Z,97228.00
2023-01-01T18:09:40.337Z,97228.00
2023-01-01T18:12:07.700Z,97227.00
2023-01-01T18:14:34.895Z,97224.00
2023-01-01T18:17:02.146Z,97216.00
2023-01-01T18:19:29.988Z,97218.00
2023-01-01T18:21:57.139Z,97208.00
2023-01-01T18:24:24.304Z,97215.00
2023-01-01T18:26:51.453Z,97214.00
2023-01-01T18:29:18.607Z,97209.00
2023-01-01T18:31:45.997Z,97207.00
2023-01-01T18:34:13.183Z,97199.00
2023-01-01T18:36:40.666Z,97197.00
2023-01-01T18:39:30.780Z,97196.00
2023-01-01T18:42:30.929Z,97195.00
2023-01-01T18:45:19.288Z,97187.00
2023-01-01T18:47:46.914Z,97186.00
2023-01-01T18:50:24.905Z,97194.00
2023-01-01T18:53:20.133Z,97198.00
2023-01-01T18:56:09.232Z,97196.00
2023-01-01T18:58:36.375Z,97192.00
2023-01-01T19:01:14.504Z,97187.00
2023-01-01T19:03:41.985Z,97188.00
2023-01-01T19:06:30.515Z,97183.00
2023-01-01T19:09:16.545Z,97180.00
2023-01-01T19:11:43.820Z,97179.00
2023-01-01T19:14:16.110Z,97183.00
2023-01-01T19:16:43.959Z,97185.00
2023-01-01T19:19:20.101Z,97188.00
2023-01-01T19:21:51.835Z,97189.00
2023-01-01T19:24:19.691Z,97189.00
2023-01-01T19:26:46.928Z,97197.00
2023-01-01T19:29:21.289Z,97197.00
2023-01-01T19:31:53.558Z,97199.00
2023-01-01T19:34:21.452Z,97194.00
2023-01-01T19:36:49.113Z,97196.00
2023-01-01T19:39:16.739Z,97196.00
2023-01-01T19:41:44.289Z,97195.00
2023-01-01T19:44:11.474Z,97192.00
2023-01-01T19:46:38.747Z,97190.00
2023-01-01T19:49:05.934Z,97190.00
2023-01-01T19:51:33.105Z,97193.00
2023-01-01T19:54:00.279Z,97188.00
2023-01-01T19:56:27.471Z,97183.00
2023-01-01T19:58:54.634Z,97177.00
2023-01-01T20:01:21.886Z,97174.00
2023-01-01T20:03:54.737Z,97165.00
2023-01-01T20:06:23.563Z,97173.00
2023-01-01T20:08:50.757Z,97170.00
2023-01-01T20:11:18.089Z,97173.00
2023-01-01T20:13:45.212Z,97178.00
2023-01-01T20:16:12.451Z,97180.00
2023-01-01T20:18:39.669Z,97185.00
2023-01-01T20:21:26.962Z,97185.00
2023-01-01T20:23:54.957Z,97183.00
2023-01-01T20:26:23.681Z,97186.00
2023-01-01T20:29:09.626Z,97179.00
2023-01-01T20:31:36.994Z,97183.00
2023-01-01T20:34:04.269Z,97185.00
2023-01-01T20:36:50.296Z,97186.00
2023-01-01T20:39:17.456Z,97197.00
2023-01-01T20:41:44.639Z,97182.00
2023-01-01T20:44:11.791Z,97199.00
2023-01-01T20:46:39.091Z,97190.00
2023-01-01T20:49:06.563Z,97184.00
2023-01-01T20:51:34.200Z,97194.00
2023-01-01T20:54:01.350Z,97193.00
2023-01-01T20:56:28.501Z,97195.00
2023-01-01T20:59:01.923Z,97186.00
2023-01-01T21:01:35.076Z,97178.00
2023-01-01T21:04:02.287Z,97186.00
2023-01-01T21:06:29.425Z,97192.00
2023-01-01T21:08:56.667Z,97189.00
2023-01-01T21:11:24.006Z,97181.00
2023-01-01T21:13:51.443Z,97183.00
2023-01-01T21:16:21.308Z,97184.00
2023-01-01T21:18:49.245Z,97177.00
2023-01-01T21:21:28.531Z,97167.00
2023-01-01T21:24:01.920Z,97168.00
2023-01-01T21:26:36.218Z,97178.00
2023-01-01T21:29:12.456Z,97176.00
2023-01-01T21:31:39.697Z,97167.00
2023-01-01T21:34:22.468Z,97173.00
2023-01-01T21:36:49.804Z,97170.00
2023-01-01T21:39:18.664Z,97172.00
2023-01-01T21:41:45.822Z,97160.00
2023-01-01T21:44:14.906Z,97173.00
2023-01-01T21:46:46.989Z,97169.00
2023-01-01T21:49:24.188Z,97174.00
2023-01-01T21:51:54.394Z,97172.00
2023-01-01T21:54:34.655Z,97167.00
2023-01-01T21:57:11.673Z,97165.00
2023-01-01T21:59:42.012Z,97166.00
2023-01-01T22:02:09.231Z,97165.00
2023-01-01T22:04:46.638Z,97164.00
2023-01-01T22:07:57.691Z,97166.00
2023-01-01T22:10:20.002Z,97169.00
2023-01-01T22:12:47.591Z,97164.00
2023-01-01T22:15:29.153Z,97166.00
2023-01-01T22:18:23.222Z,97166.00
2023-01-01T22:20:50.538Z,97169.00
2023-01-01T22:23:32.014Z,97174.00
2023-01-01T22:25:59.209Z,97165.00
2023-01-01T22:28:30.646Z,97166.00
2023-01-01T22:31:00.555Z,97161.00
2023-01-01T22:33:43.025Z,97154.00
2023-01-01T22:36:15.319Z,97159.00
2023-01-01T22:38:42.669Z,97155.00
2023-01-01T22:41:10.260Z,97151.00
2023-01-01T22:43:39.923Z,97153.00
2023-01-01T22:46:16.118Z,97147.00
2023-01-01T22:48:43.453Z,97149.00
2023-01-01T22:51:23.132Z,97145.00
2023-01-01T22:53:50.300Z,97142.00
2023-01-01T22:56:17.491Z,97148.00
2023-01-01T22:58:44.697Z,97138.00
2023-01-01T23:01:11.972Z,97145.00
2023-01-01T23:03:39.198Z,97140.00
2023-01-01T23:06:07.087Z,97136.00
2023-01-01T23:08:34.259Z,97139.00
2023-01-01T23:11:02.494Z,97138.00
2023-01-01T23:13:48.067Z,97124.00
2023-01-01T23:16:15.246Z,97125.00
2023-01-01T23:18:42.508Z,97131.00
2023-01-01T23:21:12.172Z,97129.00
2023-01-01T23:23:39.652Z,97127.00
2023-01-01T23:26:07.984Z,97128.00
2023-01-01T23:28:35.837Z,97124.00
2023-01-01T23:31:04.787Z,97123.00
2023-01-01T23:33:32.308Z,97127.00
2023-01-01T23:36:00.507Z,97129.00
2023-01-01T23:38:27.892Z,97119.00
2023-01-01T23:40:55.119Z,97125.00
2023-01-01T23:43:22.406Z,97111.00
2023-01-01T23:45:49.668Z,97121.00
2023-01-01T23:48:17.445Z,97108.00
2023-01-01T23:50:45.195Z,97111.00
2023-01-01T23:53:12.366Z,97101.00
2023-01-01T23:55:39.522Z,97110.00
2023-01-01T23:58:06.749Z,97116.00
